sensor_id;sensor_type;location;lat;lon;timestamp;pressure;altitude;pressure_sealevel;temperature;humidity
74895;BME280;63447;49.446;8.666;2024-03-23T00:52:39;99495.19;;;12.35;77.27
74895;BME280;63447;49.446;8.666;2024-03-23T00:55:04;99490.53;;;12.39;76.85
74895;BME280;63447;49.446;8.666;2024-03-23T00:57:29;99485.53;;;12.45;76.31
74895;BME280;63447;49.446;8.666;2024-03-23T00:59:54;99490.81;;;12.53;75.74
74895;BME280;63447;49.446;8.666;2024-03-23T01:02:22;99491.69;;;12.57;75.58
74895;BME280;63447;49.446;8.666;2024-03-23T01:04:48;99481.19;;;12.67;75.10
74895;BME280;63447;49.446;8.666;2024-03-23T01:07:17;99468.91;;;12.45;75.76
74895;BME280;63447;49.446;8.666;2024-03-23T01:09:45;99473.50;;;12.37;76.24
74895;BME280;63447;49.446;8.666;2024-03-23T01:12:13;99480.50;;;12.31;76.95
74895;BME280;63447;49.446;8.666;2024-03-23T01:14:40;99471.25;;;12.23;76.94
74895;BME280;63447;49.446;8.666;2024-03-23T01:17:06;99461.78;;;12.24;76.97
74895;BME280;63447;49.446;8.666;2024-03-23T01:19:33;99471.84;;;12.33;76.72
74895;BME280;63447;49.446;8.666;2024-03-23T01:21:58;99474.81;;;12.43;76.44
74895;BME280;63447;49.446;8.666;2024-03-23T01:24:28;99469.16;;;12.59;75.53
74895;BME280;63447;49.446;8.666;2024-03-23T01:26:53;99466.53;;;12.66;74.85
74895;BME280;63447;49.446;8.666;2024-03-23T01:29:21;99455.72;;;12.80;74.52
74895;BME280;63447;49.446;8.666;2024-03-23T01:31:46;99450.03;;;12.73;75.12
74895;BME280;63447;49.446;8.666;2024-03-23T01:34:11;99432.47;;;12.62;74.96
74895;BME280;63447;49.446;8.666;2024-03-23T01:36:39;99420.03;;;12.52;74.86
74895;BME280;63447;49.446;8.666;2024-03-23T01:39:05;99440.41;;;12.86;74.09
74895;BME280;63447;49.446;8.666;2024-03-23T01:41:36;99449.88;;;12.85;73.97
74895;BME280;63447;49.446;8.666;2024-03-23T01:44:05;99441.88;;;12.80;74.13
74895;BME280;63447;49.446;8.666;2024-03-23T01:46:34;99436.81;;;12.86;73.35
74895;BME280;63447;49.446;8.666;2024-03-23T01:49:00;99427.94;;;13.00;72.05
74895;BME280;63447;49.446;8.666;2024-03-23T01:51:31;99417.41;;;13.09;72.35
74895;BME280;63447;49.446;8.666;2024-03-23T01:53:57;99425.66;;;13.05;72.39
74895;BME280;63447;49.446;8.666;2024-03-23T01:56:28;99425.97;;;13.00;72.65
74895;BME280;63447;49.446;8.666;2024-03-23T01:58:58;99385.28;;;12.78;72.64
74895;BME280;63447;49.446;8.666;2024-03-23T02:01:23;99409.31;;;12.97;71.96
74895;BME280;63447;49.446;8.666;2024-03-23T02:03:54;99411.81;;;13.05;72.39
74895;BME280;63447;49.446;8.666;2024-03-23T02:06:22;99402.78;;;13.08;71.68
74895;BME280;63447;49.446;8.666;2024-03-23T02:08:50;99405.38;;;12.98;72.38
74895;BME280;63447;49.446;8.666;2024-03-23T02:11:18;99397.56;;;12.80;73.10
74895;BME280;63447;49.446;8.666;2024-03-23T02:13:50;99391.97;;;12.77;73.48
74895;BME280;63447;49.446;8.666;2024-03-23T02:16:15;99386.38;;;12.73;73.84
74895;BME280;63447;49.446;8.666;2024-03-23T02:18:43;99400.22;;;12.73;73.74
74895;BME280;63447;49.446;8.666;2024-03-23T02:21:08;99365.56;;;12.56;74.16
74895;BME280;63447;49.446;8.666;2024-03-23T02:23:38;99394.81;;;12.80;73.94
74895;BME280;63447;49.446;8.666;2024-03-23T02:26:04;99386.50;;;12.80;74.15
74895;BME280;63447;49.446;8.666;2024-03-23T02:28:34;99384.47;;;12.77;74.30
74895;BME280;63447;49.446;8.666;2024-03-23T02:31:02;99400.28;;;12.77;73.95
74895;BME280;63447;49.446;8.666;2024-03-23T02:33:32;99395.19;;;12.79;74.10
74895;BME280;63447;49.446;8.666;2024-03-23T02:35:59;99386.94;;;12.82;73.92
74895;BME280;63447;49.446;8.666;2024-03-23T02:38:29;99390.38;;;12.76;74.21
74895;BME280;63447;49.446;8.666;2024-03-23T02:41:03;99396.19;;;12.67;74.43
74895;BME280;63447;49.446;8.666;2024-03-23T02:43:29;99386.03;;;12.52;74.70
74895;BME280;63447;49.446;8.666;2024-03-23T02:45:56;99402.81;;;12.63;75.06
74895;BME280;63447;49.446;8.666;2024-03-23T02:48:26;99396.13;;;12.64;75.00
74895;BME280;63447;49.446;8.666;2024-03-23T02:50:54;99411.06;;;12.59;74.86
74895;BME280;63447;49.446;8.666;2024-03-23T02:53:21;99407.78;;;12.53;75.58
74895;BME280;63447;49.446;8.666;2024-03-23T02:55:49;99411.13;;;12.63;75.28
74895;BME280;63447;49.446;8.666;2024-03-23T02:58:15;99414.13;;;12.54;75.47
74895;BME280;63447;49.446;8.666;2024-03-23T03:00:40;99385.44;;;12.39;76.46
74895;BME280;63447;49.446;8.666;2024-03-23T03:03:05;99406.94;;;12.49;75.43
74895;BME280;63447;49.446;8.666;2024-03-23T03:05:34;99389.22;;;12.31;76.38
74895;BME280;63447;49.446;8.666;2024-03-23T03:07:59;99402.25;;;12.31;77.13
74895;BME280;63447;49.446;8.666;2024-03-23T03:10:25;99395.47;;;12.28;77.66
74895;BME280;63447;49.446;8.666;2024-03-23T03:12:50;99394.31;;;12.29;77.65
74895;BME280;63447;49.446;8.666;2024-03-23T03:15:15;99385.88;;;12.22;77.32
74895;BME280;63447;49.446;8.666;2024-03-23T03:17:41;99398.97;;;12.25;77.04
74895;BME280;63447;49.446;8.666;2024-03-23T03:20:08;99398.72;;;12.11;78.45
74895;BME280;63447;49.446;8.666;2024-03-23T03:22:43;99382.44;;;12.06;78.34
74895;BME280;63447;49.446;8.666;2024-03-23T03:25:11;99406.00;;;12.19;78.59
74895;BME280;63447;49.446;8.666;2024-03-23T03:27:37;99399.97;;;12.13;78.89
74895;BME280;63447;49.446;8.666;2024-03-23T03:30:02;99393.03;;;12.04;79.32
74895;BME280;63447;49.446;8.666;2024-03-23T03:32:32;99377.00;;;11.90;80.53
74895;BME280;63447;49.446;8.666;2024-03-23T03:34:57;99364.13;;;11.78;80.10
74895;BME280;63447;49.446;8.666;2024-03-23T03:37:23;99386.88;;;11.91;80.32
74895;BME280;63447;49.446;8.666;2024-03-23T03:39:50;99394.38;;;11.91;80.86
74895;BME280;63447;49.446;8.666;2024-03-23T03:42:16;99377.94;;;11.78;80.79
74895;BME280;63447;49.446;8.666;2024-03-23T03:44:43;99360.56;;;11.78;80.85
74895;BME280;63447;49.446;8.666;2024-03-23T03:47:09;99367.91;;;11.89;81.16
74895;BME280;63447;49.446;8.666;2024-03-23T03:49:36;99364.78;;;11.91;81.05
74895;BME280;63447;49.446;8.666;2024-03-23T03:52:02;99372.69;;;11.93;81.51
74895;BME280;63447;49.446;8.666;2024-03-23T03:54:27;99379.94;;;12.01;80.96
74895;BME280;63447;49.446;8.666;2024-03-23T03:56:59;99364.53;;;12.00;80.90
74895;BME280;63447;49.446;8.666;2024-03-23T03:59:25;99340.38;;;11.97;81.11
74895;BME280;63447;49.446;8.666;2024-03-23T04:01:53;99357.53;;;12.06;80.44
74895;BME280;63447;49.446;8.666;2024-03-23T04:04:18;99357.91;;;12.04;80.44
74895;BME280;63447;49.446;8.666;2024-03-23T04:06:44;99365.22;;;11.93;80.41
74895;BME280;63447;49.446;8.666;2024-03-23T04:09:09;99361.03;;;12.03;79.86
74895;BME280;63447;49.446;8.666;2024-03-23T04:11:35;99354.59;;;11.95;80.51
74895;BME280;63447;49.446;8.666;2024-03-23T04:14:00;99357.84;;;12.01;80.56
74895;BME280;63447;49.446;8.666;2024-03-23T04:18:55;99344.50;;;12.06;80.48
74895;BME280;63447;49.446;8.666;2024-03-23T04:21:24;99327.84;;;12.03;80.40
74895;BME280;63447;49.446;8.666;2024-03-23T04:23:49;99335.41;;;12.06;80.47
74895;BME280;63447;49.446;8.666;2024-03-23T04:26:17;99353.59;;;12.07;80.05
74895;BME280;63447;49.446;8.666;2024-03-23T04:28:42;99330.06;;;11.94;80.18
74895;BME280;63447;49.446;8.666;2024-03-23T04:31:10;99325.75;;;11.96;80.43
74895;BME280;63447;49.446;8.666;2024-03-23T04:33:43;99337.13;;;11.91;80.44
74895;BME280;63447;49.446;8.666;2024-03-23T04:36:10;99342.72;;;11.95;79.98
74895;BME280;63447;49.446;8.666;2024-03-23T04:38:36;99353.09;;;12.01;80.72
74895;BME280;63447;49.446;8.666;2024-03-23T04:41:01;99343.91;;;11.94;80.99
74895;BME280;63447;49.446;8.666;2024-03-23T04:43:30;99315.88;;;11.76;80.71
74895;BME280;63447;49.446;8.666;2024-03-23T04:46:00;99366.22;;;11.85;81.42
74895;BME280;63447;49.446;8.666;2024-03-23T04:48:26;99345.66;;;11.82;80.47
74895;BME280;63447;49.446;8.666;2024-03-23T04:50:57;99355.19;;;11.85;80.51
74895;BME280;63447;49.446;8.666;2024-03-23T04:53:25;99363.13;;;11.71;81.29
74895;BME280;63447;49.446;8.666;2024-03-23T04:55:55;99358.00;;;11.69;81.75
74895;BME280;63447;49.446;8.666;2024-03-23T04:58:20;99338.34;;;11.55;80.66
74895;BME280;63447;49.446;8.666;2024-03-23T05:00:46;99363.69;;;11.76;80.54
74895;BME280;63447;49.446;8.666;2024-03-23T05:03:13;99352.47;;;11.69;81.16
74895;BME280;63447;49.446;8.666;2024-03-23T05:05:39;99358.41;;;11.71;80.53
74895;BME280;63447;49.446;8.666;2024-03-23T05:08:05;99363.69;;;11.76;79.23
74895;BME280;63447;49.446;8.666;2024-03-23T05:10:33;99346.19;;;11.72;78.74
74895;BME280;63447;49.446;8.666;2024-03-23T05:13:02;99374.88;;;11.83;77.09
74895;BME280;63447;49.446;8.666;2024-03-23T05:15:27;99386.38;;;11.85;77.10
74895;BME280;63447;49.446;8.666;2024-03-23T05:17:57;99387.03;;;11.79;75.73
74895;BME280;63447;49.446;8.666;2024-03-23T05:20:25;99419.28;;;11.75;75.04
74895;BME280;63447;49.446;8.666;2024-03-23T05:22:55;99402.50;;;11.64;75.03
74895;BME280;63447;49.446;8.666;2024-03-23T05:25:20;99410.88;;;11.68;75.81
74895;BME280;63447;49.446;8.666;2024-03-23T05:27:45;99412.78;;;11.48;76.50
74895;BME280;63447;49.446;8.666;2024-03-23T05:30:11;99402.44;;;11.45;76.83
74895;BME280;63447;49.446;8.666;2024-03-23T05:32:36;99400.56;;;11.30;77.79
74895;BME280;63447;49.446;8.666;2024-03-23T05:35:11;99410.13;;;11.16;78.61
74895;BME280;63447;49.446;8.666;2024-03-23T05:37:39;99430.25;;;11.01;79.08
74895;BME280;63447;49.446;8.666;2024-03-23T05:40:07;99458.94;;;10.81;79.21
74895;BME280;63447;49.446;8.666;2024-03-23T05:42:35;99440.75;;;10.48;79.30
74895;BME280;63447;49.446;8.666;2024-03-23T05:45:05;99440.19;;;10.27;81.75
74895;BME280;63447;49.446;8.666;2024-03-23T05:47:33;99463.50;;;9.90;83.39
74895;BME280;63447;49.446;8.666;2024-03-23T05:49:58;99473.44;;;9.66;82.46
74895;BME280;63447;49.446;8.666;2024-03-23T05:52:24;99498.56;;;9.65;83.24
74895;BME280;63447;49.446;8.666;2024-03-23T05:54:51;99516.41;;;9.55;84.08
74895;BME280;63447;49.446;8.666;2024-03-23T05:57:16;99520.88;;;9.47;85.36
74895;BME280;63447;49.446;8.666;2024-03-23T05:59:41;99515.94;;;9.29;86.11
74895;BME280;63447;49.446;8.666;2024-03-23T06:02:07;99546.22;;;9.41;85.59
74895;BME280;63447;49.446;8.666;2024-03-23T06:04:38;99553.47;;;9.33;84.04
74895;BME280;63447;49.446;8.666;2024-03-23T06:07:04;99568.00;;;9.22;84.43
74895;BME280;63447;49.446;8.666;2024-03-23T06:09:31;99566.41;;;9.08;83.97
74895;BME280;63447;49.446;8.666;2024-03-23T06:11:57;99595.88;;;9.20;84.16
74895;BME280;63447;49.446;8.666;2024-03-23T06:14:22;99584.28;;;9.14;83.33
74895;BME280;63447;49.446;8.666;2024-03-23T06:16:47;99573.84;;;9.08;82.39
74895;BME280;63447;49.446;8.666;2024-03-23T06:19:12;99593.00;;;9.16;81.82
74895;BME280;63447;49.446;8.666;2024-03-23T06:21:43;99610.84;;;9.10;82.04
74895;BME280;63447;49.446;8.666;2024-03-23T06:24:09;99591.66;;;8.90;81.10
74895;BME280;63447;49.446;8.666;2024-03-23T06:26:34;99622.25;;;9.09;81.95
74895;BME280;63447;49.446;8.666;2024-03-23T06:29:02;99625.50;;;8.90;83.69
74895;BME280;63447;49.446;8.666;2024-03-23T06:31:28;99613.34;;;8.91;83.05
74895;BME280;63447;49.446;8.666;2024-03-23T06:33:55;99622.53;;;8.95;82.85
74895;BME280;63447;49.446;8.666;2024-03-23T06:36:20;99620.91;;;8.94;83.51
74895;BME280;63447;49.446;8.666;2024-03-23T06:38:46;99625.50;;;8.90;83.43
74895;BME280;63447;49.446;8.666;2024-03-23T06:41:13;99577.75;;;8.74;83.08
74895;BME280;63447;49.446;8.666;2024-03-23T06:43:38;99627.84;;;9.12;83.45
74895;BME280;63447;49.446;8.666;2024-03-23T06:46:07;99642.06;;;9.14;80.73
74895;BME280;63447;49.446;8.666;2024-03-23T06:48:32;99644.13;;;9.17;79.42
74895;BME280;63447;49.446;8.666;2024-03-23T06:51:00;99662.94;;;9.15;78.96
74895;BME280;63447;49.446;8.666;2024-03-23T06:53:25;99641.59;;;9.00;78.37
74895;BME280;63447;49.446;8.666;2024-03-23T06:55:54;99669.03;;;9.09;76.99
74895;BME280;63447;49.446;8.666;2024-03-23T06:58:23;99663.72;;;9.04;77.32
74895;BME280;63447;49.446;8.666;2024-03-23T07:00:49;99637.72;;;8.80;78.94
74895;BME280;63447;49.446;8.666;2024-03-23T07:03:16;99670.91;;;8.96;79.65
74895;BME280;63447;49.446;8.666;2024-03-23T07:05:44;99666.88;;;8.94;77.95
74895;BME280;63447;49.446;8.666;2024-03-23T07:08:11;99670.38;;;9.03;79.09
74895;BME280;63447;49.446;8.666;2024-03-23T07:10:39;99683.81;;;9.16;79.20
74895;BME280;63447;49.446;8.666;2024-03-23T07:13:05;99688.31;;;9.21;79.59
74895;BME280;63447;49.446;8.666;2024-03-23T07:15:30;99693.09;;;9.12;77.85
74895;BME280;63447;49.446;8.666;2024-03-23T07:17:56;99683.66;;;9.01;77.29
74895;BME280;63447;49.446;8.666;2024-03-23T07:20:23;99738.06;;;9.16;75.72
74895;BME280;63447;49.446;8.666;2024-03-23T07:22:49;99741.56;;;9.04;75.23
74895;BME280;63447;49.446;8.666;2024-03-23T07:25:14;99739.34;;;8.98;75.13
74895;BME280;63447;49.446;8.666;2024-03-23T07:27:39;99706.75;;;8.67;75.26
74895;BME280;63447;49.446;8.666;2024-03-23T07:30:06;99742.66;;;8.70;75.86
74895;BME280;63447;49.446;8.666;2024-03-23T07:32:31;99748.53;;;8.60;75.20
74895;BME280;63447;49.446;8.666;2024-03-23T07:34:57;99759.34;;;8.65;75.46
74895;BME280;63447;49.446;8.666;2024-03-23T07:37:22;99743.03;;;8.60;76.16
74895;BME280;63447;49.446;8.666;2024-03-23T07:39:47;99773.81;;;8.83;75.20
74895;BME280;63447;49.446;8.666;2024-03-23T07:42:13;99785.38;;;8.89;74.06
74895;BME280;63447;49.446;8.666;2024-03-23T07:44:39;99781.78;;;8.76;73.57
74895;BME280;63447;49.446;8.666;2024-03-23T07:47:05;99790.09;;;9.09;74.43
74895;BME280;63447;49.446;8.666;2024-03-23T07:49:30;99779.09;;;9.09;76.04
74895;BME280;63447;49.446;8.666;2024-03-23T07:51:55;99796.06;;;9.11;73.29
74895;BME280;63447;49.446;8.666;2024-03-23T07:54:21;99817.41;;;9.14;72.83
74895;BME280;63447;49.446;8.666;2024-03-23T07:56:46;99821.56;;;8.99;73.80
74895;BME280;63447;49.446;8.666;2024-03-23T07:59:12;99826.75;;;9.01;74.01
74895;BME280;63447;49.446;8.666;2024-03-23T08:01:37;99821.97;;;8.89;73.44
74895;BME280;63447;49.446;8.666;2024-03-23T08:04:03;99827.88;;;8.79;74.00
74895;BME280;63447;49.446;8.666;2024-03-23T08:06:28;99842.69;;;8.87;72.82
74895;BME280;63447;49.446;8.666;2024-03-23T08:08:57;99838.53;;;8.80;73.76
74895;BME280;63447;49.446;8.666;2024-03-23T08:11:30;99826.06;;;8.83;74.35
74895;BME280;63447;49.446;8.666;2024-03-23T08:13:56;99852.38;;;8.93;72.91
74895;BME280;63447;49.446;8.666;2024-03-23T08:16:22;99855.53;;;9.03;72.04
74895;BME280;63447;49.446;8.666;2024-03-23T08:18:50;99855.25;;;9.17;71.47
74895;BME280;63447;49.446;8.666;2024-03-23T08:21:16;99866.88;;;9.23;71.32
74895;BME280;63447;49.446;8.666;2024-03-23T08:23:44;99869.59;;;9.31;71.26
74895;BME280;63447;49.446;8.666;2024-03-23T08:26:11;99877.38;;;9.29;69.86
74895;BME280;63447;49.446;8.666;2024-03-23T08:28:39;99879.75;;;9.10;70.69
74895;BME280;63447;49.446;8.666;2024-03-23T08:31:07;99885.41;;;9.13;70.79
74895;BME280;63447;49.446;8.666;2024-03-23T08:33:33;99887.56;;;9.08;69.61
74895;BME280;63447;49.446;8.666;2024-03-23T08:36:02;99882.59;;;9.43;69.58
74895;BME280;63447;49.446;8.666;2024-03-23T08:38:28;99891.44;;;9.69;68.93
74895;BME280;63447;49.446;8.666;2024-03-23T08:41:04;99891.53;;;9.94;67.93
74895;BME280;63447;49.446;8.666;2024-03-23T08:43:40;99899.25;;;10.00;66.43
74895;BME280;63447;49.446;8.666;2024-03-23T08:46:15;99905.31;;;9.94;65.67
74895;BME280;63447;49.446;8.666;2024-03-23T08:48:42;99890.31;;;10.03;66.21
74895;BME280;63447;49.446;8.666;2024-03-23T08:51:10;99891.19;;;9.95;66.71
74895;BME280;63447;49.446;8.666;2024-03-23T08:53:36;99902.97;;;10.04;65.81
74895;BME280;63447;49.446;8.666;2024-03-23T08:56:03;99893.22;;;10.07;65.91
74895;BME280;63447;49.446;8.666;2024-03-23T08:58:30;99912.28;;;10.12;65.51
74895;BME280;63447;49.446;8.666;2024-03-23T09:01:09;99910.69;;;10.11;63.98
74895;BME280;63447;49.446;8.666;2024-03-23T09:03:35;99892.69;;;9.93;62.11
74895;BME280;63447;49.446;8.666;2024-03-23T09:06:02;99887.50;;;9.91;62.49
74895;BME280;63447;49.446;8.666;2024-03-23T09:08:35;99915.34;;;10.31;62.42
74895;BME280;63447;49.446;8.666;2024-03-23T09:11:05;99913.28;;;10.28;63.14
74895;BME280;63447;49.446;8.666;2024-03-23T09:13:34;99942.25;;;10.46;63.33
74895;BME280;63447;49.446;8.666;2024-03-23T09:15:59;99944.13;;;10.54;61.64
74895;BME280;63447;49.446;8.666;2024-03-23T09:18:25;99942.50;;;10.53;61.58
74895;BME280;63447;49.446;8.666;2024-03-23T09:20:50;99948.41;;;10.64;61.09
74895;BME280;63447;49.446;8.666;2024-03-23T09:23:16;99933.78;;;10.51;61.48
74895;BME280;63447;49.446;8.666;2024-03-23T09:25:41;99952.31;;;10.63;60.55
74895;BME280;63447;49.446;8.666;2024-03-23T09:28:07;99941.28;;;10.63;61.66
74895;BME280;63447;49.446;8.666;2024-03-23T09:30:34;99923.91;;;10.63;61.09
74895;BME280;63447;49.446;8.666;2024-03-23T09:32:59;99928.63;;;10.62;61.35
74895;BME280;63447;49.446;8.666;2024-03-23T09:35:27;99907.25;;;10.59;61.85
74895;BME280;63447;49.446;8.666;2024-03-23T09:37:55;99913.19;;;10.49;59.54
74895;BME280;63447;49.446;8.666;2024-03-23T09:40:20;99909.25;;;10.26;59.70
74895;BME280;63447;49.446;8.666;2024-03-23T09:42:50;99926.28;;;10.07;61.62
74895;BME280;63447;49.446;8.666;2024-03-23T09:45:26;99937.25;;;9.95;64.39
74895;BME280;63447;49.446;8.666;2024-03-23T09:47:55;99910.69;;;9.90;64.36
74895;BME280;63447;49.446;8.666;2024-03-23T09:50:21;99942.63;;;10.12;64.42
74895;BME280;63447;49.446;8.666;2024-03-23T09:52:47;99942.63;;;10.12;64.24
74895;BME280;63447;49.446;8.666;2024-03-23T09:55:14;99930.44;;;10.13;66.12
74895;BME280;63447;49.446;8.666;2024-03-23T09:57:40;99926.50;;;10.14;65.04
74895;BME280;63447;49.446;8.666;2024-03-23T10:00:06;99917.91;;;10.15;64.98
74895;BME280;63447;49.446;8.666;2024-03-23T10:02:34;99927.94;;;10.20;62.56
74895;BME280;63447;49.446;8.666;2024-03-23T10:04:59;99934.88;;;10.26;64.04
74895;BME280;63447;49.446;8.666;2024-03-23T10:07:25;99903.56;;;10.10;62.50
74895;BME280;63447;49.446;8.666;2024-03-23T10:09:51;99929.69;;;10.25;61.62
74895;BME280;63447;49.446;8.666;2024-03-23T10:12:18;99933.97;;;10.13;58.35
74895;BME280;63447;49.446;8.666;2024-03-23T10:14:43;99927.56;;;9.88;55.30
74895;BME280;63447;49.446;8.666;2024-03-23T10:17:15;99926.22;;;9.95;54.12
74895;BME280;63447;49.446;8.666;2024-03-23T10:19:45;99917.47;;;9.93;53.39
74895;BME280;63447;49.446;8.666;2024-03-23T10:22:13;99934.56;;;10.07;53.12
74895;BME280;63447;49.446;8.666;2024-03-23T10:24:41;99922.94;;;10.13;53.05
74895;BME280;63447;49.446;8.666;2024-03-23T10:27:07;99905.50;;;10.09;53.77
74895;BME280;63447;49.446;8.666;2024-03-23T10:29:33;99926.25;;;10.40;52.90
74895;BME280;63447;49.446;8.666;2024-03-23T10:32:11;99905.94;;;10.44;52.48
74895;BME280;63447;49.446;8.666;2024-03-23T10:34:37;99921.81;;;10.47;51.64
74895;BME280;63447;49.446;8.666;2024-03-23T10:37:03;99906.09;;;10.72;53.42
74895;BME280;63447;49.446;8.666;2024-03-23T10:39:43;99911.59;;;10.72;53.35
74895;BME280;63447;49.446;8.666;2024-03-23T10:42:09;99908.50;;;10.62;51.64
74895;BME280;63447;49.446;8.666;2024-03-23T10:44:38;99906.00;;;10.81;50.98
74895;BME280;63447;49.446;8.666;2024-03-23T10:47:07;99898.84;;;11.04;50.64
74895;BME280;63447;49.446;8.666;2024-03-23T10:49:33;99916.41;;;11.24;48.00
74895;BME280;63447;49.446;8.666;2024-03-23T10:52:05;99898.28;;;11.51;46.04
74895;BME280;63447;49.446;8.666;2024-03-23T10:54:32;99880.66;;;11.55;45.89
74895;BME280;63447;49.446;8.666;2024-03-23T10:57:14;99902.44;;;12.72;44.85
74895;BME280;63447;49.446;8.666;2024-03-23T10:59:43;99887.34;;;12.70;44.22
74895;BME280;63447;49.446;8.666;2024-03-23T11:02:19;99894.09;;;12.88;42.78
74895;BME280;63447;49.446;8.666;2024-03-23T11:04:47;99900.34;;;13.16;42.28
74895;BME280;63447;49.446;8.666;2024-03-23T11:09:53;99905.88;;;12.85;38.97
74895;BME280;63447;49.446;8.666;2024-03-23T11:12:40;99892.16;;;12.73;39.47
74895;BME280;63447;49.446;8.666;2024-03-23T11:15:11;99907.50;;;12.54;40.01
74895;BME280;63447;49.446;8.666;2024-03-23T11:17:38;99901.50;;;12.37;40.80
74895;BME280;63447;49.446;8.666;2024-03-23T11:20:05;99907.44;;;13.33;39.58
74895;BME280;63447;49.446;8.666;2024-03-23T11:25:03;99903.56;;;14.34;37.46
74895;BME280;63447;49.446;8.666;2024-03-23T11:27:28;99896.94;;;14.62;36.01
74895;BME280;63447;49.446;8.666;2024-03-23T11:32:42;99894.75;;;15.23;34.50
74895;BME280;63447;49.446;8.666;2024-03-23T11:35:08;99883.53;;;15.16;33.53
74895;BME280;63447;49.446;8.666;2024-03-23T11:37:38;99877.63;;;14.69;34.12
74895;BME280;63447;49.446;8.666;2024-03-23T11:40:19;99892.00;;;14.09;34.01
74895;BME280;63447;49.446;8.666;2024-03-23T11:42:47;99854.94;;;14.89;35.90
74895;BME280;63447;49.446;8.666;2024-03-23T11:45:18;99863.31;;;15.76;35.08
74895;BME280;63447;49.446;8.666;2024-03-23T11:47:43;99848.81;;;16.37;34.00
74895;BME280;63447;49.446;8.666;2024-03-23T11:50:09;99850.19;;;16.54;31.62
74895;BME280;63447;49.446;8.666;2024-03-23T11:52:35;99861.00;;;15.81;35.37
74895;BME280;63447;49.446;8.666;2024-03-23T11:55:07;99867.00;;;14.74;40.55
74895;BME280;63447;49.446;8.666;2024-03-23T11:57:35;99892.53;;;13.96;42.99
74895;BME280;63447;49.446;8.666;2024-03-23T12:00:01;99918.94;;;12.69;47.23
74895;BME280;63447;49.446;8.666;2024-03-23T12:02:26;99953.03;;;11.85;51.52
74895;BME280;63447;49.446;8.666;2024-03-23T12:04:51;99974.88;;;11.14;58.99
74895;BME280;63447;49.446;8.666;2024-03-23T12:07:19;99941.31;;;9.35;68.28
74895;BME280;63447;49.446;8.666;2024-03-23T12:09:45;99989.31;;;9.46;72.47
74895;BME280;63447;49.446;8.666;2024-03-23T12:12:20;99961.47;;;8.89;75.07
74895;BME280;63447;49.446;8.666;2024-03-23T12:15:02;99931.97;;;8.60;76.00
74895;BME280;63447;49.446;8.666;2024-03-23T12:17:28;99939.22;;;8.73;77.07
74895;BME280;63447;49.446;8.666;2024-03-23T12:19:53;99942.53;;;8.49;79.98
74895;BME280;63447;49.446;8.666;2024-03-23T12:22:22;99952.94;;;8.81;80.36
74895;BME280;63447;49.446;8.666;2024-03-23T12:24:48;99927.81;;;8.54;82.81
74895;BME280;63447;49.446;8.666;2024-03-23T12:27:14;99930.97;;;9.02;80.89
74895;BME280;63447;49.446;8.666;2024-03-23T12:29:40;99940.53;;;8.67;81.32
74895;BME280;63447;49.446;8.666;2024-03-23T12:32:07;99907.19;;;8.22;80.00
74895;BME280;63447;49.446;8.666;2024-03-23T12:34:32;99917.78;;;8.87;84.32
74895;BME280;63447;49.446;8.666;2024-03-23T12:36:58;99936.19;;;9.45;80.10
74895;BME280;63447;49.446;8.666;2024-03-23T12:39:23;99929.88;;;9.24;77.25
74895;BME280;63447;49.446;8.666;2024-03-23T12:41:49;99944.41;;;9.75;77.98
74895;BME280;63447;49.446;8.666;2024-03-23T12:44:15;99920.50;;;10.00;75.95
74895;BME280;63447;49.446;8.666;2024-03-23T12:46:41;99936.41;;;10.15;73.61
74895;BME280;63447;49.446;8.666;2024-03-23T12:49:10;99928.66;;;10.29;72.77
74895;BME280;63447;49.446;8.666;2024-03-23T12:51:35;99931.44;;;10.29;74.11
74895;BME280;63447;49.446;8.666;2024-03-23T12:54:04;99929.78;;;11.10;72.10
74895;BME280;63447;49.446;8.666;2024-03-23T12:56:29;99934.25;;;11.27;70.85
74895;BME280;63447;49.446;8.666;2024-03-23T12:58:58;99930.34;;;11.40;71.31
74895;BME280;63447;49.446;8.666;2024-03-23T13:01:25;99920.66;;;11.34;68.87
74895;BME280;63447;49.446;8.666;2024-03-23T13:03:53;99897.22;;;10.54;73.12
74895;BME280;63447;49.446;8.666;2024-03-23T13:06:19;99877.00;;;10.75;67.27
74895;BME280;63447;49.446;8.666;2024-03-23T13:08:47;99931.34;;;10.38;66.13
74895;BME280;63447;49.446;8.666;2024-03-23T13:11:15;99922.78;;;8.56;69.64
74895;BME280;63447;49.446;8.666;2024-03-23T13:13:41;99979.81;;;8.76;70.95
74895;BME280;63447;49.446;8.666;2024-03-23T13:16:07;99926.78;;;7.86;72.50
74895;BME280;63447;49.446;8.666;2024-03-23T13:18:32;99991.41;;;7.48;76.58
74895;BME280;63447;49.446;8.666;2024-03-23T13:20:58;99963.66;;;7.02;81.42
74895;BME280;63447;49.446;8.666;2024-03-23T13:23:24;99955.09;;;6.46;84.58
74895;BME280;63447;49.446;8.666;2024-03-23T13:25:50;99967.56;;;6.61;87.43
74895;BME280;63447;49.446;8.666;2024-03-23T13:28:18;99951.56;;;6.55;84.81
74895;BME280;63447;49.446;8.666;2024-03-23T13:30:52;99917.28;;;6.66;87.40
74895;BME280;63447;49.446;8.666;2024-03-23T13:33:18;99924.63;;;7.05;85.86
74895;BME280;63447;49.446;8.666;2024-03-23T13:35:50;99932.13;;;7.65;85.21
74895;BME280;63447;49.446;8.666;2024-03-23T13:38:16;99944.88;;;7.87;83.39
74895;BME280;63447;49.446;8.666;2024-03-23T13:40:51;99921.56;;;8.27;80.12
74895;BME280;63447;49.446;8.666;2024-03-23T13:43:16;99951.19;;;8.68;79.11
74895;BME280;63447;49.446;8.666;2024-03-23T13:45:42;99931.75;;;8.73;77.81
74895;BME280;63447;49.446;8.666;2024-03-23T13:48:07;99924.13;;;8.79;73.27
74895;BME280;63447;49.446;8.666;2024-03-23T13:50:35;99919.66;;;8.66;75.11
74895;BME280;63447;49.446;8.666;2024-03-23T13:53:01;99942.53;;;8.49;75.92
74895;BME280;63447;49.446;8.666;2024-03-23T13:55:26;99942.16;;;8.59;75.50
74895;BME280;63447;49.446;8.666;2024-03-23T13:57:52;99941.47;;;8.79;75.50
74895;BME280;63447;49.446;8.666;2024-03-23T14:00:17;99937.19;;;9.41;71.30
74895;BME280;63447;49.446;8.666;2024-03-23T14:02:44;99942.91;;;9.77;70.55
74895;BME280;63447;49.446;8.666;2024-03-23T14:05:12;99920.22;;;9.80;69.36
74895;BME280;63447;49.446;8.666;2024-03-23T14:07:39;99928.22;;;9.52;69.40